sensor_id;sensor_type;location;lat;lon;timestamp;temperature;humidity
12746;DHT22;6437;53.686;10.030;2023-01-09T00:02:27;7.60;99.90
12746;DHT22;6437;53.686;10.030;2023-01-09T00:05:29;7.60;99.90
12746;DHT22;6437;53.686;10.030;2023-01-09T00:08:31;7.60;99.90
12746;DHT22;6437;53.686;10.030;2023-01-09T00:11:33;7.60;99.90
12746;DHT22;6437;53.686;10.030;2023-01-09T00:14:36;7.60;99.90
12746;DHT22;6437;53.686;10.030;2023-01-09T00:17:38;7.60;99.90
12746;DHT22;6437;53.686;10.030;2023-01-09T00:20:39;7.60;99.90
12746;DHT22;6437;53.686;10.030;2023-01-09T00:23:42;7.60;99.90
12746;DHT22;6437;53.686;10.030;2023-01-09T00:26:44;7.60;99.90
12746;DHT22;6437;53.686;10.030;2023-01-09T00:29:47;7.50;99.90
12746;DHT22;6437;53.686;10.030;2023-01-09T00:32:48;7.50;99.90
12746;DHT22;6437;53.686;10.030;2023-01-09T00:35:50;7.50;99.90
12746;DHT22;6437;53.686;10.030;2023-01-09T00:38:53;7.50;99.90
12746;DHT22;6437;53.686;10.030;2023-01-09T00:41:55;7.50;99.90
12746;DHT22;6437;53.686;10.030;2023-01-09T00:45:02;7.50;99.90
12746;DHT22;6437;53.686;10.030;2023-01-09T00:48:07;7.30;99.90
12746;DHT22;6437;53.686;10.030;2023-01-09T00:51:10;7.50;99.90
12746;DHT22;6437;53.686;10.030;2023-01-09T00:54:14;7.50;99.90
12746;DHT22;6437;53.686;10.030;2023-01-09T00:57:16;7.50;99.90
12746;DHT22;6437;53.686;10.030;2023-01-09T01:00:20;7.50;99.90
12746;DHT22;6437;53.686;10.030;2023-01-09T01:03:21;7.50;99.90
12746;DHT22;6437;53.686;10.030;2023-01-09T01:06:23;7.60;99.90
12746;DHT22;6437;53.686;10.030;2023-01-09T01:09:43;7.60;99.90
12746;DHT22;6437;53.686;10.030;2023-01-09T01:12:46;7.60;99.90
12746;DHT22;6437;53.686;10.030;2023-01-09T01:15:49;7.60;99.90
12746;DHT22;6437;53.686;10.030;2023-01-09T01:18:50;7.60;99.90
12746;DHT22;6437;53.686;10.030;2023-01-09T01:21:53;7.60;99.90
12746;DHT22;6437;53.686;10.030;2023-01-09T01:24:55;7.70;99.90
12746;DHT22;6437;53.686;10.030;2023-01-09T01:27:57;7.70;99.90
12746;DHT22;6437;53.686;10.030;2023-01-09T01:31:00;7.70;99.90
12746;DHT22;6437;53.686;10.030;2023-01-09T01:34:02;7.70;99.90
12746;DHT22;6437;53.686;10.030;2023-01-09T01:37:04;7.70;99.90
12746;DHT22;6437;53.686;10.030;2023-01-09T01:40:07;7.70;99.90
12746;DHT22;6437;53.686;10.030;2023-01-09T01:43:11;7.70;99.90
12746;DHT22;6437;53.686;10.030;2023-01-09T01:46:14;7.70;99.90
12746;DHT22;6437;53.686;10.030;2023-01-09T01:49:16;7.70;99.90
12746;DHT22;6437;53.686;10.030;2023-01-09T01:52:20;7.70;99.90
12746;DHT22;6437;53.686;10.030;2023-01-09T01:55:22;7.70;99.90
12746;DHT22;6437;53.686;10.030;2023-01-09T01:58:25;7.70;99.90
12746;DHT22;6437;53.686;10.030;2023-01-09T02:01:29;7.70;99.90
12746;DHT22;6437;53.686;10.030;2023-01-09T02:04:34;7.70;99.90
12746;DHT22;6437;53.686;10.030;2023-01-09T02:07:38;7.70;99.90
12746;DHT22;6437;53.686;10.030;2023-01-09T02:10:40;7.70;99.90
12746;DHT22;6437;53.686;10.030;2023-01-09T02:13:43;7.60;99.90
12746;DHT22;6437;53.686;10.030;2023-01-09T02:16:53;7.70;99.90
12746;DHT22;6437;53.686;10.030;2023-01-09T02:24:03;7.70;99.90
12746;DHT22;6437;53.686;10.030;2023-01-09T02:31:04;7.80;99.90
12746;DHT22;6437;53.686;10.030;2023-01-09T02:34:13;7.70;99.90
12746;DHT22;6437;53.686;10.030;2023-01-09T02:37:23;7.70;99.90
12746;DHT22;6437;53.686;10.030;2023-01-09T02:40:34;7.70;99.90
12746;DHT22;6437;53.686;10.030;2023-01-09T02:43:38;7.70;99.90
12746;DHT22;6437;53.686;10.030;2023-01-09T02:46:41;7.70;99.90
12746;DHT22;6437;53.686;10.030;2023-01-09T02:49:46;7.70;99.90
12746;DHT22;6437;53.686;10.030;2023-01-09T02:53:10;7.70;99.90
12746;DHT22;6437;53.686;10.030;2023-01-09T02:56:26;7.70;99.90
12746;DHT22;6437;53.686;10.030;2023-01-09T02:59:34;7.80;99.90
12746;DHT22;6437;53.686;10.030;2023-01-09T03:02:49;7.80;99.90
12746;DHT22;6437;53.686;10.030;2023-01-09T03:05:53;7.80;99.90
12746;DHT22;6437;53.686;10.030;2023-01-09T03:09:04;7.80;99.90
12746;DHT22;6437;53.686;10.030;2023-01-09T03:12:10;7.90;99.90
12746;DHT22;6437;53.686;10.030;2023-01-09T03:15:17;7.90;99.90
12746;DHT22;6437;53.686;10.030;2023-01-09T03:18:24;7.90;99.90
12746;DHT22;6437;53.686;10.030;2023-01-09T03:21:27;7.90;99.90
12746;DHT22;6437;53.686;10.030;2023-01-09T03:24:29;8.00;99.90
12746;DHT22;6437;53.686;10.030;2023-01-09T03:27:32;8.00;99.90
12746;DHT22;6437;53.686;10.030;2023-01-09T03:30:35;8.00;99.90
12746;DHT22;6437;53.686;10.030;2023-01-09T03:33:38;8.10;99.90
12746;DHT22;6437;53.686;10.030;2023-01-09T03:36:40;8.10;99.90
12746;DHT22;6437;53.686;10.030;2023-01-09T03:39:42;8.10;99.90
12746;DHT22;6437;53.686;10.030;2023-01-09T03:42:44;8.10;99.90
12746;DHT22;6437;53.686;10.030;2023-01-09T03:45:46;8.10;99.90
12746;DHT22;6437;53.686;10.030;2023-01-09T03:48:49;8.10;99.90
12746;DHT22;6437;53.686;10.030;2023-01-09T03:51:51;8.10;99.90
12746;DHT22;6437;53.686;10.030;2023-01-09T03:54:52;8.10;99.90
12746;DHT22;6437;53.686;10.030;2023-01-09T03:57:54;8.20;99.90
12746;DHT22;6437;53.686;10.030;2023-01-09T04:00:58;8.20;99.90
12746;DHT22;6437;53.686;10.030;2023-01-09T04:04:01;8.20;99.90
12746;DHT22;6437;53.686;10.030;2023-01-09T04:07:03;8.20;99.90
12746;DHT22;6437;53.686;10.030;2023-01-09T04:10:05;8.20;99.90
12746;DHT22;6437;53.686;10.030;2023-01-09T04:13:07;8.20;99.90
12746;DHT22;6437;53.686;10.030;2023-01-09T04:16:09;8.30;99.90
12746;DHT22;6437;53.686;10.030;2023-01-09T04:19:12;8.50;99.90
12746;DHT22;6437;53.686;10.030;2023-01-09T04:22:14;8.30;99.90
12746;DHT22;6437;53.686;10.030;2023-01-09T04:25:16;8.20;99.90
12746;DHT22;6437;53.686;10.030;2023-01-09T04:28:17;8.20;99.90
12746;DHT22;6437;53.686;10.030;2023-01-09T04:31:19;8.30;99.90
12746;DHT22;6437;53.686;10.030;2023-01-09T04:34:22;8.30;99.90
12746;DHT22;6437;53.686;10.030;2023-01-09T04:37:25;8.30;99.90
12746;DHT22;6437;53.686;10.030;2023-01-09T04:40:27;8.30;99.90
12746;DHT22;6437;53.686;10.030;2023-01-09T04:43:28;8.30;99.90
12746;DHT22;6437;53.686;10.030;2023-01-09T04:46:30;8.30;99.90
12746;DHT22;6437;53.686;10.030;2023-01-09T04:49:33;8.40;99.90
12746;DHT22;6437;53.686;10.030;2023-01-09T04:52:35;8.30;99.90
12746;DHT22;6437;53.686;10.030;2023-01-09T04:55:37;8.30;99.90
12746;DHT22;6437;53.686;10.030;2023-01-09T04:58:40;8.20;99.90
12746;DHT22;6437;53.686;10.030;2023-01-09T05:01:42;8.30;99.90
12746;DHT22;6437;53.686;10.030;2023-01-09T05:04:45;8.30;99.90
12746;DHT22;6437;53.686;10.030;2023-01-09T05:07:47;8.30;99.90
12746;DHT22;6437;53.686;10.030;2023-01-09T05:10:49;8.30;99.90
12746;DHT22;6437;53.686;10.030;2023-01-09T05:13:51;8.30;99.90
12746;DHT22;6437;53.686;10.030;2023-01-09T05:16:53;8.30;99.90
12746;DHT22;6437;53.686;10.030;2023-01-09T05:19:56;8.30;99.90
12746;DHT22;6437;53.686;10.030;2023-01-09T05:22:57;8.30;99.90
12746;DHT22;6437;53.686;10.030;2023-01-09T05:25:59;8.30;99.90
12746;DHT22;6437;53.686;10.030;2023-01-09T05:29:01;8.30;99.90
12746;DHT22;6437;53.686;10.030;2023-01-09T05:32:03;8.30;99.90
12746;DHT22;6437;53.686;10.030;2023-01-09T05:35:07;8.30;99.90
12746;DHT22;6437;53.686;10.030;2023-01-09T05:38:08;8.20;99.90
12746;DHT22;6437;53.686;10.030;2023-01-09T05:41:11;8.30;99.90
12746;DHT22;6437;53.686;10.030;2023-01-09T05:44:12;8.30;99.90
12746;DHT22;6437;53.686;10.030;2023-01-09T05:47:14;8.30;99.90
12746;DHT22;6437;53.686;10.030;2023-01-09T05:50:17;8.30;99.90
12746;DHT22;6437;53.686;10.030;2023-01-09T05:53:19;8.20;99.90
12746;DHT22;6437;53.686;10.030;2023-01-09T05:56:21;8.20;99.90
12746;DHT22;6437;53.686;10.030;2023-01-09T05:59:23;8.30;99.90
12746;DHT22;6437;53.686;10.030;2023-01-09T06:02:24;8.20;99.90
12746;DHT22;6437;53.686;10.030;2023-01-09T06:05:27;8.10;99.90
12746;DHT22;6437;53.686;10.030;2023-01-09T06:08:29;8.20;99.90
12746;DHT22;6437;53.686;10.030;2023-01-09T06:11:31;8.20;99.90
12746;DHT22;6437;53.686;10.030;2023-01-09T06:14:35;8.20;99.90
12746;DHT22;6437;53.686;10.030;2023-01-09T06:17:36;8.10;99.90
12746;DHT22;6437;53.686;10.030;2023-01-09T06:20:39;8.10;99.90
12746;DHT22;6437;53.686;10.030;2023-01-09T06:23:41;8.10;99.90
12746;DHT22;6437;53.686;10.030;2023-01-09T06:26:43;8.10;99.90
12746;DHT22;6437;53.686;10.030;2023-01-09T06:29:45;8.10;99.90
12746;DHT22;6437;53.686;10.030;2023-01-09T06:32:47;8.10;99.90
12746;DHT22;6437;53.686;10.030;2023-01-09T06:35:50;8.10;99.90
12746;DHT22;6437;53.686;10.030;2023-01-09T06:38:52;8.10;99.90
12746;DHT22;6437;53.686;10.030;2023-01-09T06:41:54;8.10;99.90
12746;DHT22;6437;53.686;10.030;2023-01-09T06:44:56;8.10;99.90
12746;DHT22;6437;53.686;10.030;2023-01-09T06:47:57;8.10;99.90
12746;DHT22;6437;53.686;10.030;2023-01-09T06:51:01;8.10;99.90
12746;DHT22;6437;53.686;10.030;2023-01-09T06:54:03;8.20;99.90
12746;DHT22;6437;53.686;10.030;2023-01-09T06:57:05;8.10;99.90
12746;DHT22;6437;53.686;10.030;2023-01-09T07:00:08;8.10;99.90
12746;DHT22;6437;53.686;10.030;2023-01-09T07:03:10;8.10;99.90
12746;DHT22;6437;53.686;10.030;2023-01-09T07:06:16;8.10;99.90
12746;DHT22;6437;53.686;10.030;2023-01-09T07:09:19;8.10;99.90
12746;DHT22;6437;53.686;10.030;2023-01-09T07:12:21;8.10;99.90
12746;DHT22;6437;53.686;10.030;2023-01-09T07:15:22;8.10;99.90
12746;DHT22;6437;53.686;10.030;2023-01-09T07:18:24;8.10;99.90
12746;DHT22;6437;53.686;10.030;2023-01-09T07:21:27;8.10;99.90
12746;DHT22;6437;53.686;10.030;2023-01-09T07:24:29;8.10;99.90
12746;DHT22;6437;53.686;10.030;2023-01-09T07:27:31;8.10;99.90
12746;DHT22;6437;53.686;10.030;2023-01-09T07:30:32;8.10;99.90
12746;DHT22;6437;53.686;10.030;2023-01-09T07:33:34;8.10;99.90
12746;DHT22;6437;53.686;10.030;2023-01-09T07:36:37;8.10;99.90
12746;DHT22;6437;53.686;10.030;2023-01-09T07:39:39;8.10;99.90
12746;DHT22;6437;53.686;10.030;2023-01-09T07:42:41;8.10;99.90
12746;DHT22;6437;53.686;10.030;2023-01-09T07:45:44;8.10;99.90
12746;DHT22;6437;53.686;10.030;2023-01-09T07:48:46;8.10;99.90
12746;DHT22;6437;53.686;10.030;2023-01-09T07:51:49;8.10;99.90
12746;DHT22;6437;53.686;10.030;2023-01-09T07:54:51;8.10;99.90
12746;DHT22;6437;53.686;10.030;2023-01-09T07:57:53;8.10;99.90
12746;DHT22;6437;53.686;10.030;2023-01-09T08:00:54;8.10;99.90
12746;DHT22;6437;53.686;10.030;2023-01-09T08:03:56;8.10;99.90
12746;DHT22;6437;53.686;10.030;2023-01-09T08:06:59;8.10;99.90
12746;DHT22;6437;53.686;10.030;2023-01-09T08:10:03;8.10;99.90
12746;DHT22;6437;53.686;10.030;2023-01-09T08:13:04;8.10;99.90
12746;DHT22;6437;53.686;10.030;2023-01-09T08:16:06;8.10;99.90
12746;DHT22;6437;53.686;10.030;2023-01-09T08:19:08;8.10;99.90
12746;DHT22;6437;53.686;10.030;2023-01-09T08:22:12;8.00;99.90
12746;DHT22;6437;53.686;10.030;2023-01-09T08:25:15;8.00;99.90
12746;DHT22;6437;53.686;10.030;2023-01-09T08:28:17;8.00;99.90
12746;DHT22;6437;53.686;10.030;2023-01-09T08:31:18;7.90;99.90
12746;DHT22;6437;53.686;10.030;2023-01-09T08:34:20;7.90;99.90
12746;DHT22;6437;53.686;10.030;2023-01-09T08:37:24;7.80;99.90
12746;DHT22;6437;53.686;10.030;2023-01-09T08:40:26;7.80;99.90
12746;DHT22;6437;53.686;10.030;2023-01-09T08:43:27;7.80;99.90
12746;DHT22;6437;53.686;10.030;2023-01-09T08:46:47;7.80;99.90
12746;DHT22;6437;53.686;10.030;2023-01-09T08:50:08;7.70;99.90
12746;DHT22;6437;53.686;10.030;2023-01-09T08:53:11;7.70;99.90
12746;DHT22;6437;53.686;10.030;2023-01-09T08:56:14;7.70;99.90
12746;DHT22;6437;53.686;10.030;2023-01-09T08:59:16;7.60;99.90
12746;DHT22;6437;53.686;10.030;2023-01-09T09:02:18;7.60;99.90
12746;DHT22;6437;53.686;10.030;2023-01-09T09:05:20;7.60;99.90
12746;DHT22;6437;53.686;10.030;2023-01-09T09:08:24;7.60;99.90
12746;DHT22;6437;53.686;10.030;2023-01-09T09:11:25;7.60;99.90
12746;DHT22;6437;53.686;10.030;2023-01-09T09:14:27;7.60;99.90
12746;DHT22;6437;53.686;10.030;2023-01-09T09:17:48;7.70;99.90
12746;DHT22;6437;53.686;10.030;2023-01-09T09:20:50;7.70;99.90
12746;DHT22;6437;53.686;10.030;2023-01-09T09:23:53;7.70;99.90
12746;DHT22;6437;53.686;10.030;2023-01-09T09:26:57;7.70;99.90
12746;DHT22;6437;53.686;10.030;2023-01-09T09:29:59;7.70;99.90
12746;DHT22;6437;53.686;10.030;2023-01-09T09:33:02;7.70;99.90
12746;DHT22;6437;53.686;10.030;2023-01-09T09:36:04;7.70;99.90
12746;DHT22;6437;53.686;10.030;2023-01-09T09:39:07;7.70;99.90
12746;DHT22;6437;53.686;10.030;2023-01-09T09:42:21;7.70;99.90
12746;DHT22;6437;53.686;10.030;2023-01-09T09:45:47;7.70;99.90
12746;DHT22;6437;53.686;10.030;2023-01-09T09:48:55;7.70;99.90
12746;DHT22;6437;53.686;10.030;2023-01-09T09:52:03;7.70;99.90
12746;DHT22;6437;53.686;10.030;2023-01-09T09:55:17;7.80;99.90
12746;DHT22;6437;53.686;10.030;2023-01-09T09:58:23;7.80;99.90
12746;DHT22;6437;53.686;10.030;2023-01-09T10:01:35;7.80;99.90
12746;DHT22;6437;53.686;10.030;2023-01-09T10:04:41;7.80;99.90
12746;DHT22;6437;53.686;10.030;2023-01-09T10:07:49;7.70;99.90
12746;DHT22;6437;53.686;10.030;2023-01-09T10:10:53;7.70;99.90
12746;DHT22;6437;53.686;10.030;2023-01-09T10:13:55;7.70;99.90
12746;DHT22;6437;53.686;10.030;2023-01-09T10:17:16;7.70;99.90
12746;DHT22;6437;53.686;10.030;2023-01-09T10:20:47;7.70;99.90
12746;DHT22;6437;53.686;10.030;2023-01-09T10:24:07;7.70;99.90
12746;DHT22;6437;53.686;10.030;2023-01-09T10:27:19;7.70;99.90
12746;DHT22;6437;53.686;10.030;2023-01-09T10:30:32;7.70;99.90
12746;DHT22;6437;53.686;10.030;2023-01-09T10:33:46;7.70;99.90
12746;DHT22;6437;53.686;10.030;2023-01-09T10:37:00;7.80;99.90
12746;DHT22;6437;53.686;10.030;2023-01-09T10:40:13;7.80;99.90
12746;DHT22;6437;53.686;10.030;2023-01-09T10:43:27;7.70;99.90
12746;DHT22;6437;53.686;10.030;2023-01-09T10:46:34;7.80;99.90
12746;DHT22;6437;53.686;10.030;2023-01-09T10:49:38;7.70;99.90
12746;DHT22;6437;53.686;10.030;2023-01-09T10:52:41;7.80;99.90
12746;DHT22;6437;53.686;10.030;2023-01-09T10:55:45;7.70;99.90
12746;DHT22;6437;53.686;10.030;2023-01-09T10:58:48;7.70;99.90
12746;DHT22;6437;53.686;10.030;2023-01-09T11:01:52;7.70;99.90
12746;DHT22;6437;53.686;10.030;2023-01-09T11:04:54;7.60;99.90
12746;DHT22;6437;53.686;10.030;2023-01-09T11:07:58;7.60;99.90
12746;DHT22;6437;53.686;10.030;2023-01-09T11:11:02;7.70;99.90
12746;DHT22;6437;53.686;10.030;2023-01-09T11:14:12;7.60;99.90
12746;DHT22;6437;53.686;10.030;2023-01-09T11:17:18;7.60;99.90
12746;DHT22;6437;53.686;10.030;2023-01-09T11:20:23;7.60;99.90
12746;DHT22;6437;53.686;10.030;2023-01-09T11:23:28;7.60;99.90
12746;DHT22;6437;53.686;10.030;2023-01-09T11:26:31;7.50;99.90
12746;DHT22;6437;53.686;10.030;2023-01-09T11:29:35;7.40;99.90
12746;DHT22;6437;53.686;10.030;2023-01-09T11:32:37;7.40;99.90
12746;DHT22;6437;53.686;10.030;2023-01-09T11:35:52;7.30;99.90
12746;DHT22;6437;53.686;10.030;2023-01-09T11:38:56;7.40;99.90
12746;DHT22;6437;53.686;10.030;2023-01-09T11:42:02;7.40;99.90
12746;DHT22;6437;53.686;10.030;2023-01-09T11:45:13;7.50;99.90
12746;DHT22;6437;53.686;10.030;2023-01-09T11:48:18;7.60;99.90
12746;DHT22;6437;53.686;10.030;2023-01-09T11:51:22;7.60;99.90
12746;DHT22;6437;53.686;10.030;2023-01-09T11:54:25;7.70;99.90
12746;DHT22;6437;53.686;10.030;2023-01-09T11:57:27;7.90;99.90
12746;DHT22;6437;53.686;10.030;2023-01-09T12:00:36;8.00;99.90
12746;DHT22;6437;53.686;10.030;2023-01-09T12:04:01;8.20;99.90
12746;DHT22;6437;53.686;10.030;2023-01-09T12:10:49;8.30;99.90
12746;DHT22;6437;53.686;10.030;2023-01-09T12:14:09;8.20;99.90
12746;DHT22;6437;53.686;10.030;2023-01-09T12:17:39;8.30;99.90
12746;DHT22;6437;53.686;10.030;2023-01-09T12:20:56;8.30;99.90
12746;DHT22;6437;53.686;10.030;2023-01-09T12:27:36;8.30;99.90
12746;DHT22;6437;53.686;10.030;2023-01-09T12:30:53;8.40;99.90
12746;DHT22;6437;53.686;10.030;2023-01-09T12:34:11;8.40;99.90
12746;DHT22;6437;53.686;10.030;2023-01-09T12:37:40;8.40;99.90
12746;DHT22;6437;53.686;10.030;2023-01-09T12:41:00;8.40;99.90
12746;DHT22;6437;53.686;10.030;2023-01-09T12:44:20;8.40;99.90
12746;DHT22;6437;53.686;10.030;2023-01-09T12:47:40;8.40;99.90
12746;DHT22;6437;53.686;10.030;2023-01-09T12:51:08;8.50;99.90
12746;DHT22;6437;53.686;10.030;2023-01-09T12:54:18;8.50;99.90
12746;DHT22;6437;53.686;10.030;2023-01-09T12:57:25;8.50;99.90
12746;DHT22;6437;53.686;10.030;2023-01-09T13:00:31;8.50;99.90
12746;DHT22;6437;53.686;10.030;2023-01-09T13:03:37;8.50;99.90
12746;DHT22;6437;53.686;10.030;2023-01-09T13:06:45;8.50;99.90
12746;DHT22;6437;53.686;10.030;2023-01-09T13:09:51;8.50;99.90
12746;DHT22;6437;53.686;10.030;2023-01-09T13:12:56;8.50;99.90
12746;DHT22;6437;53.686;10.030;2023-01-09T13:16:01;8.50;99.90
12746;DHT22;6437;53.686;10.030;2023-01-09T13:19:10;8.60;99.90
12746;DHT22;6437;53.686;10.030;2023-01-09T13:22:14;8.50;99.90
12746;DHT22;6437;53.686;10.030;2023-01-09T13:25:34;8.60;99.90
12746;DHT22;6437;53.686;10.030;2023-01-09T13:28:41;8.60;99.90
12746;DHT22;6437;53.686;10.030;2023-01-09T13:32:07;8.60;99.90
12746;DHT22;6437;53.686;10.030;2023-01-09T13:35:14;8.60;99.90
12746;DHT22;6437;53.686;10.030;2023-01-09T13:38:20;8.60;99.90
12746;DHT22;6437;53.686;10.030;2023-01-09T13:41:22;8.60;99.90
12746;DHT22;6437;53.686;10.030;2023-01-09T13:44:43;8.60;99.90
12746;DHT22;6437;53.686;10.030;2023-01-09T13:47:46;8.60;99.90
12746;DHT22;6437;53.686;10.030;2023-01-09T13:50:47;8.50;99.90
12746;DHT22;6437;53.686;10.030;2023-01-09T13:53:51;8.50;99.90
12746;DHT22;6437;53.686;10.030;2023-01-09T13:57:24;8.50;99.90
12746;DHT22;6437;53.686;10.030;2023-01-09T14:00:48;8.50;99.90
12746;DHT22;6437;53.686;10.030;2023-01-09T14:04:36;8.60;99.90
12746;DHT22;6437;53.686;10.030;2023-01-09T14:07:41;8.60;99.90
12746;DHT22;6437;53.686;10.030;2023-01-09T14:10:48;8.60;99.90
12746;DHT22;6437;53.686;10.030;2023-01-09T14:14:06;8.60;99.90
12746;DHT22;6437;53.686;10.030;2023-01-09T14:17:16;8.60;99.90
12746;DHT22;6437;53.686;10.030;2023-01-09T14:20:24;8.60;99.90
12746;DHT22;6437;53.686;10.030;2023-01-09T14:23:29;8.70;99.90
12746;DHT22;6437;53.686;10.030;2023-01-09T14:26:43;8.70;99.90
12746;DHT22;6437;53.686;10.030;2023-01-09T14:29:45;8.70;99.90
12746;DHT22;6437;53.686;10.030;2023-01-09T14:32:55;8.60;99.90
12746;DHT22;6437;53.686;10.030;2023-01-09T14:36:04;8.60;99.90
12746;DHT22;6437;53.686;10.030;2023-01-09T14:39:11;8.60;99.90
12746;DHT22;6437;53.686;10.030;2023-01-09T14:42:19;8.50;99.90
12746;DHT22;6437;53.686;10.030;2023-01-09T14:45:23;8.60;99.90
12746;DHT22;6437;53.686;10.030;2023-01-09T14:48:26;8.60;99.90
12746;DHT22;6437;53.686;10.030;2023-01-09T14:51:30;8.60;99.90
12746;DHT22;6437;53.686;10.030;2023-01-09T14:54:37;8.50;99.90
12746;DHT22;6437;53.686;10.030;2023-01-09T14:57:42;8.60;99.90
12746;DHT22;6437;53.686;10.030;2023-01-09T15:00:49;8.60;99.90
12746;DHT22;6437;53.686;10.030;2023-01-09T15:03:56;8.60;99.90
12746;DHT22;6437;53.686;10.030;2023-01-09T15:06:59;8.60;99.90
12746;DHT22;6437;53.686;10.030;2023-01-09T15:10:03;8.70;99.90
12746;DHT22;6437;53.686;10.030;2023-01-09T15:13:10;8.70;99.90
12746;DHT22;6437;53.686;10.030;2023-01-09T15:16:17;8.70;99.90
12746;DHT22;6437;53.686;10.030;2023-01-09T15:19:19;8.70;99.90
12746;DHT22;6437;53.686;10.030;2023-01-09T15:22:24;8.60;99.90
12746;DHT22;6437;53.686;10.030;2023-01-09T15:25:30;8.60;99.90
12746;DHT22;6437;53.686;10.030;2023-01-09T15:28:38;8.60;99.90
12746;DHT22;6437;53.686;10.030;2023-01-09T15:31:42;8.60;99.90
12746;DHT22;6437;53.686;10.030;2023-01-09T15:34:45;8.60;99.90
12746;DHT22;6437;53.686;10.030;2023-01-09T15:37:47;8.60;99.90
12746;DHT22;6437;53.686;10.030;2023-01-09T15:40:53;8.60;99.90
12746;DHT22;6437;53.686;10.030;2023-01-09T15:43:56;8.50;99.90
12746;DHT22;6437;53.686;10.030;2023-01-09T15:46:59;8.50;99.90
12746;DHT22;6437;53.686;10.030;2023-01-09T15:50:02;8.60;99.90
12746;DHT22;6437;53.686;10.030;2023-01-09T15:53:05;8.50;99.90
12746;DHT22;6437;53.686;10.030;2023-01-09T15:56:15;8.40;99.90
12746;DHT22;6437;53.686;10.030;2023-01-09T15:59:24;8.40;99.90
12746;DHT22;6437;53.686;10.030;2023-01-09T16:02:27;8.40;99.90
12746;DHT22;6437;53.686;10.030;2023-01-09T16:05:49;8.40;99.90
12746;DHT22;6437;53.686;10.030;2023-01-09T16:08:53;8.50;99.90
12746;DHT22;6437;53.686;10.030;2023-01-09T16:11:59;8.40;99.90
12746;DHT22;6437;53.686;10.030;2023-01-09T16:15:03;8.40;99.90
12746;DHT22;6437;53.686;10.030;2023-01-09T16:18:06;8.40;99.90
12746;DHT22;6437;53.686;10.030;2023-01-09T16:21:32;8.40;99.90
12746;DHT22;6437;53.686;10.030;2023-01-09T16:24:38;8.40;99.90
12746;DHT22;6437;53.686;10.030;2023-01-09T16:27:41;8.40;99.90
12746;DHT22;6437;53.686;10.030;2023-01-09T16:30:52;8.40;99.90
12746;DHT22;6437;53.686;10.030;2023-01-09T16:33:57;8.40;99.90
12746;DHT22;6437;53.686;10.030;2023-01-09T16:36:59;8.30;99.90
12746;DHT22;6437;53.686;10.030;2023-01-09T16:40:32;8.30;99.90
12746;DHT22;6437;53.686;10.030;2023-01-09T16:43:36;8.30;99.90
12746;DHT22;6437;53.686;10.030;2023-01-09T16:46:40;8.30;99.90
12746;DHT22;6437;53.686;10.030;2023-01-09T16:49:43;8.30;99.90
12746;DHT22;6437;53.686;10.030;2023-01-09T16:52:44;8.30;99.90
12746;DHT22;6437;53.686;10.030;2023-01-09T16:55:46;8.30;99.90
12746;DHT22;6437;53.686;10.030;2023-01-09T16:58:48;8.30;99.90
12746;DHT22;6437;53.686;10.030;2023-01-09T17:01:53;8.30;99.90
12746;DHT22;6437;53.686;10.030;2023-01-09T17:04:55;8.30;99.90
12746;DHT22;6437;53.686;10.030;2023-01-09T17:07:58;8.20;99.90
12746;DHT22;6437;53.686;10.030;2023-01-09T17:11:00;8.20;99.90
12746;DHT22;6437;53.686;10.030;2023-01-09T17:14:03;8.20;99.90
12746;DHT22;6437;53.686;10.030;2023-01-09T17:17:10;8.20;99.90
12746;DHT22;6437;53.686;10.030;2023-01-09T17:20:16;8.20;99.90
12746;DHT22;6437;53.686;10.030;2023-01-09T17:23:19;8.20;99.90
12746;DHT22;6437;53.686;10.030;2023-01-09T17:26:21;8.20;99.90
12746;DHT22;6437;53.686;10.030;2023-01-09T17:29:41;8.20;99.90
12746;DHT22;6437;53.686;10.030;2023-01-09T17:32:45;8.20;99.90
12746;DHT22;6437;53.686;10.030;2023-01-09T17:35:47;8.20;99.90
12746;DHT22;6437;53.686;10.030;2023-01-09T17:38:49;8.20;99.90
12746;DHT22;6437;53.686;10.030;2023-01-09T17:41:54;8.10;99.90
12746;DHT22;6437;53.686;10.030;2023-01-09T17:44:57;8.20;99.90
12746;DHT22;6437;53.686;10.030;2023-01-09T17:48:00;8.10;99.90
12746;DHT22;6437;53.686;10.030;2023-01-09T17:51:02;8.20;99.90
12746;DHT22;6437;53.686;10.030;2023-01-09T17:54:04;8.20;99.90
12746;DHT22;6437;53.686;10.030;2023-01-09T17:57:06;8.20;99.90
12746;DHT22;6437;53.686;10.030;2023-01-09T18:00:21;8.20;99.90
12746;DHT22;6437;53.686;10.030;2023-01-09T18:03:25;8.20;99.90
12746;DHT22;6437;53.686;10.030;2023-01-09T18:06:33;8.20;99.90
12746;DHT22;6437;53.686;10.030;2023-01-09T18:09:35;8.20;99.90
12746;DHT22;6437;53.686;10.030;2023-01-09T18:12:37;8.20;99.90
12746;DHT22;6437;53.686;10.030;2023-01-09T18:15:40;8.20;99.90
12746;DHT22;6437;53.686;10.030;2023-01-09T18:18:44;8.20;99.90
12746;DHT22;6437;53.686;10.030;2023-01-09T18:21:46;8.20;99.90
12746;DHT22;6437;53.686;10.030;2023-01-09T18:24:48;8.20;99.90
12746;DHT22;6437;53.686;10.030;2023-01-09T18:27:50;8.30;99.90
12746;DHT22;6437;53.686;10.030;2023-01-09T18:30:52;8.20;99.90
12746;DHT22;6437;53.686;10.030;2023-01-09T18:33:57;8.20;99.90
12746;DHT22;6437;53.686;10.030;2023-01-09T18:37:01;8.20;99.90
12746;DHT22;6437;53.686;10.030;2023-01-09T18:40:04;8.20;99.90
12746;DHT22;6437;53.686;10.030;2023-01-09T18:43:07;8.20;99.90
12746;DHT22;6437;53.686;10.030;2023-01-09T18:46:09;8.20;99.90
12746;DHT22;6437;53.686;10.030;2023-01-09T18:49:12;8.20;99.90
12746;DHT22;6437;53.686;10.030;2023-01-09T18:52:14;8.20;99.90
12746;DHT22;6437;53.686;10.030;2023-01-09T18:55:16;8.20;99.90
12746;DHT22;6437;53.686;10.030;2023-01-09T18:58:18;8.20;99.90
12746;DHT22;6437;53.686;10.030;2023-01-09T19:01:19;8.10;99.90
12746;DHT22;6437;53.686;10.030;2023-01-09T19:04:22;8.10;99.90
12746;DHT22;6437;53.686;10.030;2023-01-09T19:07:24;8.20;99.90
12746;DHT22;6437;53.686;10.030;2023-01-09T19:10:26;8.10;99.90
12746;DHT22;6437;53.686;10.030;2023-01-09T19:13:29;8.10;99.90
12746;DHT22;6437;53.686;10.030;2023-01-09T19:16:31;8.10;99.90
12746;DHT22;6437;53.686;10.030;2023-01-09T19:19:34;8.10;99.90
12746;DHT22;6437;53.686;10.030;2023-01-09T19:22:36;8.10;99.90
12746;DHT22;6437;53.686;10.030;2023-01-09T19:25:38;8.00;99.90
12746;DHT22;6437;53.686;10.030;2023-01-09T19:28:40;8.10;99.90
12746;DHT22;6437;53.686;10.030;2023-01-09T19:31:44;8.00;99.90
12746;DHT22;6437;53.686;10.030;2023-01-09T19:34:49;8.00;99.90
12746;DHT22;6437;53.686;10.030;2023-01-09T19:37:51;8.00;99.90
12746;DHT22;6437;53.686;10.030;2023-01-09T19:40:52;7.90;99.90
12746;DHT22;6437;53.686;10.030;2023-01-09T19:43:54;7.90;99.90
12746;DHT22;6437;53.686;10.030;2023-01-09T19:46:56;7.90;99.90
12746;DHT22;6437;53.686;10.030;2023-01-09T19:49:59;8.00;99.90
12746;DHT22;6437;53.686;10.030;2023-01-09T19:53:01;8.00;99.90
12746;DHT22;6437;53.686;10.030;2023-01-09T19:56:10;7.90;99.90
12746;DHT22;6437;53.686;10.030;2023-01-09T19:59:12;7.90;99.90
12746;DHT22;6437;53.686;10.030;2023-01-09T20:02:15;7.90;99.90
12746;DHT22;6437;53.686;10.030;2023-01-09T20:05:18;7.90;99.90